Verdon, Nebraska
Current Conditions -  °F | °C
As of 4:53 PM on Tuesday 27 Jan 2015 (Local Time) from KFNB Reporting Station
Clear Clear  
Wind Chill: 53°   Ceiling: Unl
Heat Index: 53°   Visibility: 10mi
Dew Point: 31°   Wind: 9mph
Humidity: 43%   Direction: 130°SE
Pressure: 30.04"   Gusts: NA
Location:  40.15°N, 95.71°W
Report Text: KFNB 272253Z AUTO 13008KT 10SM CLR 12/M01 A3004 RMK AO2 SLP177 T01171006
Loading
Personal Weather Stations






























Interactive Weather Map New forecast layout! Learn more

10-Day Weather Forecast

Advertisements
Track Severe Weather on mobile